Time;durP1;ratioP1;P1;durP2;ratioP2;P2;SDS_P1;SDS_P2;PMS_P1;PMS_P2;Temp;Humidity;BMP_temperature;BMP_pressure;BME280_temperature;BME280_humidity;BME280_pressure;Samples;Min_cycle;Max_cycle;Signal;HPM_P1;HPM_P2
2023/03/16 00:00:34;;;;;;;2.83;2.60;;;16.00;44.50;;;;;;4979427;28;20199;-82
2023/03/16 00:03:03;;;;;;;2.72;2.53;;;16.00;44.70;;;;;;4978699;28;20210;-79
2023/03/16 00:05:30;;;;;;;2.70;2.50;;;16.00;44.50;;;;;;4979324;28;20314;-80
2023/03/16 00:07:58;;;;;;;3.47;2.90;;;16.00;44.70;;;;;;4977812;28;20225;-80
2023/03/16 00:10:26;;;;;;;3.50;3.20;;;16.00;44.60;;;;;;4977843;28;20217;-80
2023/03/16 00:12:53;;;;;;;3.05;2.85;;;16.00;44.70;;;;;;4979207;28;20206;-80
2023/03/16 00:15:20;;;;;;;2.97;2.60;;;15.90;44.50;;;;;;4979687;28;20209;-80
2023/03/16 00:17:48;;;;;;;3.17;2.90;;;15.90;44.70;;;;;;4979421;28;20198;-80
2023/03/16 00:20:16;;;;;;;3.42;2.90;;;15.90;44.70;;;;;;4978475;28;20202;-80
2023/03/16 00:22:43;;;;;;;3.35;3.05;;;15.90;44.70;;;;;;4977734;28;20209;-80
2023/03/16 00:25:11;;;;;;;3.13;2.53;;;15.90;44.60;;;;;;4977614;28;20203;-80
2023/03/16 00:27:39;;;;;;;3.28;2.80;;;15.90;44.70;;;;;;4961394;28;20265;-80
2023/03/16 00:30:07;;;;;;;2.97;2.70;;;15.80;44.70;;;;;;4977010;28;20198;-80
2023/03/16 00:32:35;;;;;;;2.85;2.65;;;15.80;44.50;;;;;;4977518;28;20204;-79
2023/03/16 00:35:02;;;;;;;3.05;2.85;;;15.80;44.70;;;;;;4977301;28;20201;-79
2023/03/16 00:37:32;;;;;;;2.83;2.60;;;15.80;44.70;;;;;;4977134;28;20226;-79
2023/03/16 00:39:59;;;;;;;3.00;2.80;;;15.80;44.70;;;;;;4977516;28;20538;-79
2023/03/16 00:42:28;;;;;;;2.83;2.63;;;15.80;44.70;;;;;;4978016;28;20237;-79
2023/03/16 00:44:56;;;;;;;2.92;2.72;;;15.80;44.70;;;;;;4961862;28;20206;-79
2023/03/16 00:47:23;;;;;;;3.55;2.80;;;15.70;44.60;;;;;;4977186;28;20232;-79
2023/03/16 00:49:50;;;;;;;3.60;2.90;;;15.70;44.60;;;;;;4977007;28;20669;-80
2023/03/16 00:52:19;;;;;;;2.92;2.72;;;15.70;44.60;;;;;;4978369;28;20618;-80
2023/03/16 00:54:47;;;;;;;3.35;3.15;;;15.70;44.60;;;;;;4978096;28;20593;-80
2023/03/16 00:57:17;;;;;;;3.08;2.88;;;15.70;44.70;;;;;;4976958;28;20309;-80
2023/03/16 00:59:44;;;;;;;3.78;3.22;;;15.70;44.70;;;;;;4976921;28;20619;-80
2023/03/16 01:02:12;;;;;;;3.03;2.72;;;15.70;44.80;;;;;;4977248;28;20206;-80
2023/03/16 01:04:40;;;;;;;3.17;2.97;;;15.60;44.60;;;;;;4976551;28;20208;-80
2023/03/16 01:07:07;;;;;;;3.40;3.10;;;15.60;44.50;;;;;;4977142;28;20225;-80
2023/03/16 01:09:35;;;;;;;3.47;3.17;;;15.60;44.80;;;;;;4961979;28;20198;-80
2023/03/16 01:12:05;;;;;;;3.40;3.15;;;15.60;44.60;;;;;;4961937;28;20241;-80
2023/03/16 01:14:33;;;;;;;3.58;3.28;;;15.60;44.70;;;;;;4976531;28;20238;-80
2023/03/16 01:17:01;;;;;;;3.42;3.13;;;15.60;44.70;;;;;;4976708;28;20602;-80
2023/03/16 01:19:28;;;;;;;3.35;3.15;;;15.50;44.70;;;;;;4976745;28;20212;-80
2023/03/16 01:21:56;;;;;;;3.40;3.13;;;15.50;44.70;;;;;;4976463;28;20669;-80
2023/03/16 01:24:23;;;;;;;3.42;3.20;;;15.50;44.70;;;;;;4976050;28;20653;-80
2023/03/16 01:26:51;;;;;;;3.10;2.90;;;15.50;44.80;;;;;;4977589;28;20261;-80
2023/03/16 01:29:20;;;;;;;3.22;3.00;;;15.50;44.80;;;;;;4976217;28;20198;-80
2023/03/16 01:31:48;;;;;;;3.08;2.88;;;15.50;44.70;;;;;;4976370;28;20214;-80
2023/03/16 01:34:17;;;;;;;3.17;2.97;;;15.50;44.90;;;;;;4960314;28;20204;-80
2023/03/16 01:36:44;;;;;;;3.40;2.97;;;15.50;44.90;;;;;;4976198;28;20218;-80
2023/03/16 01:39:12;;;;;;;3.30;3.10;;;15.40;44.80;;;;;;4976364;28;20213;-80
2023/03/16 01:41:43;;;;;;;4.10;3.20;;;15.40;44.80;;;;;;4976848;28;20324;-80
2023/03/16 01:44:12;;;;;;;3.40;3.10;;;15.40;44.80;;;;;;4976152;28;20198;-80
2023/03/16 01:46:43;;;;;;;3.60;3.30;;;15.40;44.80;;;;;;4975791;28;20221;-80
2023/03/16 01:49:11;;;;;;;3.60;3.30;;;15.40;44.80;;;;;;4975963;28;20198;-80
2023/03/16 01:51:42;;;;;;;3.38;3.08;;;15.40;44.90;;;;;;4960251;28;20194;-80
2023/03/16 01:54:14;;;;;;;4.07;3.10;;;15.40;44.90;;;;;;4960332;28;20634;-80
2023/03/16 01:56:43;;;;;;;3.28;3.00;;;15.40;44.90;;;;;;4976503;28;20222;-80
2023/03/16 01:59:14;;;;;;;3.60;3.33;;;15.40;44.90;;;;;;5013804;23;20313;-79
2023/03/16 02:01:43;;;;;;;3.40;3.10;;;15.30;44.90;;;;;;4976772;28;20194;-79
2023/03/16 02:04:21;;;;;;;3.88;3.30;;;15.30;44.90;;;;;;4976042;28;20625;-79
2023/03/16 02:06:49;;;;;;;3.60;3.30;;;15.30;45.00;;;;;;4975936;28;20276;-79
2023/03/16 02:09:16;;;;;;;3.10;2.80;;;15.20;44.90;;;;;;4976052;28;20264;-79
2023/03/16 02:11:44;;;;;;;3.25;3.00;;;15.30;45.00;;;;;;4976618;28;20214;-79
2023/03/16 02:14:13;;;;;;;3.58;3.28;;;15.30;44.90;;;;;;4979240;28;20573;-79
2023/03/16 02:16:43;;;;;;;3.40;3.10;;;15.30;45.00;;;;;;4976562;28;20604;-79
2023/03/16 02:19:14;;;;;;;3.25;2.97;;;15.30;44.90;;;;;;4975952;28;20194;-79
2023/03/16 02:21:45;;;;;;;3.53;3.22;;;15.20;45.00;;;;;;4975722;28;20194;-79
2023/03/16 02:24:12;;;;;;;3.22;2.92;;;15.20;44.90;;;;;;4959686;28;20548;-79
2023/03/16 02:26:43;;;;;;;3.50;3.20;;;15.30;45.00;;;;;;4975409;28;20214;-79
2023/03/16 02:29:17;;;;;;;3.75;3.45;;;15.20;44.80;;;;;;4975879;28;20547;-79
2023/03/16 02:31:47;;;;;;;3.53;3.22;;;15.20;44.90;;;;;;4975537;28;20188;-79
2023/03/16 02:34:14;;;;;;;3.30;3.05;;;15.20;44.80;;;;;;4974774;28;20210;-79
2023/03/16 02:36:41;;;;;;;3.35;3.05;;;15.20;44.90;;;;;;4975340;28;20214;-79
2023/03/16 02:39:08;;;;;;;3.35;3.05;;;15.20;44.90;;;;;;4975491;28;20205;-79
2023/03/16 02:41:44;;;;;;;3.40;3.10;;;15.10;44.70;;;;;;4960464;28;20198;-79
2023/03/16 02:44:15;;;;;;;3.67;2.80;;;15.20;44.80;;;;;;4975318;28;20261;-79
2023/03/16 02:46:43;;;;;;;3.33;3.13;;;15.20;44.90;;;;;;4975143;28;20240;-79
2023/03/16 02:49:16;;;;;;;3.75;3.25;;;15.20;44.90;;;;;;4975687;28;20230;-79
2023/03/16 02:51:44;;;;;;;3.75;3.25;;;15.10;44.90;;;;;;4975499;28;20207;-79
2023/03/16 02:54:11;;;;;;;3.75;3.45;;;15.10;44.80;;;;;;4975147;28;20209;-79
2023/03/16 02:56:39;;;;;;;3.65;3.40;;;15.10;44.90;;;;;;4959434;28;20218;-79
2023/03/16 02:59:06;;;;;;;3.67;3.38;;;15.10;44.90;;;;;;4974765;28;20294;-79
2023/03/16 03:01:35;;;;;;;3.83;3.50;;;15.10;45.00;;;;;;4975079;28;20252;-79
2023/03/16 03:04:03;;;;;;;4.50;4.10;;;15.10;45.10;;;;;;4975608;28;20202;-80
2023/03/16 03:06:33;;;;;;;3.72;3.42;;;15.00;45.00;;;;;;4975062;28;20222;-80
2023/03/16 03:09:01;;;;;;;4.25;3.95;;;15.00;44.90;;;;;;4974678;28;20237;-80
2023/03/16 03:11:28;;;;;;;3.92;3.63;;;15.00;44.90;;;;;;4976370;28;20202;-80
2023/03/16 03:13:55;;;;;;;4.00;3.60;;;15.00;44.80;;;;;;4982281;28;20206;-80
2023/03/16 03:16:25;;;;;;;3.60;3.30;;;15.00;44.90;;;;;;4985621;28;20217;-80
2023/03/16 03:18:52;;;;;;;3.80;3.50;;;15.00;44.80;;;;;;4983372;28;20225;-80
2023/03/16 03:21:20;;;;;;;3.65;3.35;;;15.00;45.00;;;;;;4980521;28;20209;-80
2023/03/16 03:23:48;;;;;;;3.95;3.60;;;15.00;44.90;;;;;;4979591;28;20209;-80
2023/03/16 03:26:15;;;;;;;3.53;3.22;;;15.00;45.00;;;;;;4979000;28;20643;-80
2023/03/16 03:28:44;;;;;;;3.63;3.33;;;15.00;45.10;;;;;;4978902;28;20306;-80
2023/03/16 03:31:16;;;;;;;3.60;3.30;;;14.90;44.90;;;;;;4981065;28;20209;-80
2023/03/16 03:33:43;;;;;;;3.38;3.08;;;14.90;45.00;;;;;;4981712;28;20229;-80
2023/03/16 03:36:11;;;;;;;4.35;3.95;;;14.90;45.10;;;;;;4979349;28;20317;-80
2023/03/16 03:38:40;;;;;;;3.60;3.30;;;14.90;44.90;;;;;;4979431;28;20297;-80
2023/03/16 03:41:09;;;;;;;3.60;3.30;;;15.00;45.00;;;;;;4978654;28;20280;-80
2023/03/16 03:43:38;;;;;;;3.55;3.22;;;14.90;44.90;;;;;;4978309;28;20570;-80
2023/03/16 03:46:08;;;;;;;3.83;3.53;;;14.90;45.10;;;;;;4978924;28;20276;-80
2023/03/16 03:48:35;;;;;;;3.83;3.53;;;14.90;45.00;;;;;;4982354;28;20253;-80
2023/03/16 03:51:04;;;;;;;3.35;3.10;;;14.90;45.00;;;;;;4981403;28;20692;-80
2023/03/16 03:53:56;;;;;;;4.13;3.72;;;14.90;45.00;;;;;;4968361;28;20284;-80
2023/03/16 03:56:40;;;;;;;3.55;3.25;;;14.80;45.00;;;;;;4978486;28;20628;-80
2023/03/16 03:59:11;;;;;;;3.63;3.33;;;14.80;45.00;;;;;;4977952;28;20561;-80
2023/03/16 04:01:57;;;;;;;3.63;3.33;;;14.80;45.60;;;;;;4979102;28;20189;-80
2023/03/16 04:04:30;;;;;;;3.83;3.53;;;14.80;45.70;;;;;;4963134;28;20194;-80
2023/03/16 04:06:57;;;;;;;3.90;3.60;;;14.80;45.10;;;;;;4978119;28;20229;-80
2023/03/16 04:09:25;;;;;;;3.60;3.30;;;14.80;45.20;;;;;;4977959;28;20308;-80
2023/03/16 04:11:56;;;;;;;3.55;3.25;;;14.80;45.30;;;;;;4977975;28;20248;-80
2023/03/16 04:14:25;;;;;;;3.30;3.10;;;14.80;45.10;;;;;;4978508;28;20277;-80
2023/03/16 04:16:53;;;;;;;3.45;3.15;;;14.80;45.20;;;;;;4977753;28;20244;-80
2023/03/16 04:19:21;;;;;;;3.70;3.40;;;14.80;45.40;;;;;;4962175;28;20272;-80
2023/03/16 04:21:49;;;;;;;3.85;3.45;;;14.70;45.30;;;;;;4978107;28;20285;-79
2023/03/16 04:24:18;;;;;;;3.67;3.40;;;14.80;45.40;;;;;;4977967;28;20210;-79
2023/03/16 04:26:45;;;;;;;4.55;4.03;;;14.80;45.30;;;;;;4978570;28;20309;-79
2023/03/16 04:29:16;;;;;;;4.40;4.00;;;14.80;45.20;;;;;;4977342;28;20273;-79
2023/03/16 04:31:44;;;;;;;4.03;3.72;;;14.70;45.10;;;;;;4977455;28;20197;-79
2023/03/16 04:34:13;;;;;;;4.63;4.22;;;14.70;45.10;;;;;;4977801;28;20613;-79
2023/03/16 04:36:41;;;;;;;3.80;3.50;;;14.80;45.10;;;;;;4977606;28;20624;-79
2023/03/16 04:39:09;;;;;;;4.30;3.90;;;14.80;45.20;;;;;;4977386;28;20190;-79
2023/03/16 04:41:36;;;;;;;3.90;3.60;;;14.80;45.20;;;;;;4977519;28;20740;-79
2023/03/16 04:44:12;;;;;;;4.75;3.90;;;14.80;45.00;;;;;;4977760;28;20190;-79
2023/03/16 04:46:41;;;;;;;3.88;3.58;;;14.80;45.10;;;;;;4961641;28;20217;-79
2023/03/16 04:49:10;;;;;;;3.90;3.60;;;14.80;45.70;;;;;;4976869;28;20305;-79
2023/03/16 04:51:39;;;;;;;3.85;3.55;;;14.90;44.90;;;;;;4976931;28;20199;-79
2023/03/16 04:54:10;;;;;;;3.28;3.00;;;14.80;44.90;;;;;;4977093;28;20653;-79
2023/03/16 04:56:41;;;;;;;4.22;3.83;;;14.90;45.10;;;;;;4976822;28;20245;-79
2023/03/16 04:59:15;;;;;;;4.03;3.40;;;14.90;45.00;;;;;;4976206;28;20289;-79
2023/03/16 05:01:59;;;;;;;3.78;3.40;;;14.90;45.00;;;;;;4977747;28;20378;-79
2023/03/16 05:04:27;;;;;;;3.88;3.58;;;14.90;45.00;;;;;;4976866;28;20689;-79
2023/03/16 05:06:54;;;;;;;3.53;3.22;;;14.90;45.00;;;;;;4976955;28;20222;-79
2023/03/16 05:09:26;;;;;;;4.03;3.70;;;14.90;45.10;;;;;;4977884;28;20214;-79
2023/03/16 05:11:54;;;;;;;3.45;3.15;;;14.90;45.00;;;;;;4977150;28;20212;-79
2023/03/16 05:14:21;;;;;;;3.72;3.42;;;14.90;44.90;;;;;;4977935;28;20194;-80
2023/03/16 05:17:19;;;;;;;3.33;3.03;;;14.90;44.90;;;;;;4977629;28;20209;-79
2023/03/16 05:19:47;;;;;;;3.55;3.25;;;14.90;44.90;;;;;;4997555;28;20194;-79
2023/03/16 05:22:15;;;;;;;3.60;3.30;;;14.90;44.90;;;;;;4995152;28;20198;-79
2023/03/16 05:25:02;;;;;;;4.35;3.25;;;15.00;45.20;;;;;;4982607;28;20250;-79
2023/03/16 05:27:29;;;;;;;3.75;3.45;;;15.00;45.00;;;;;;4983463;28;20257;-79
2023/03/16 05:29:56;;;;;;;3.67;3.38;;;15.00;44.80;;;;;;4982912;28;20214;-79
2023/03/16 05:32:26;;;;;;;3.65;3.35;;;15.00;44.80;;;;;;4965831;28;20205;-79
2023/03/16 05:34:53;;;;;;;3.78;3.47;;;15.00;44.70;;;;;;4980900;28;20608;-79
2023/03/16 05:37:23;;;;;;;3.58;3.28;;;15.00;44.50;;;;;;4977157;28;20269;-79
2023/03/16 05:39:50;;;;;;;3.47;3.17;;;15.10;44.50;;;;;;4978666;28;20215;-79
2023/03/16 05:42:18;;;;;;;3.63;3.35;;;15.10;44.60;;;;;;4979196;28;20198;-79
2023/03/16 05:44:50;;;;;;;4.05;3.75;;;15.10;44.30;;;;;;4978663;28;20191;-79
2023/03/16 05:47:29;;;;;;;4.07;3.67;;;15.10;44.90;;;;;;4976131;28;20225;-79
2023/03/16 05:49:57;;;;;;;4.32;4.03;;;15.20;44.40;;;;;;4976344;28;20218;-79
2023/03/16 05:52:32;;;;;;;3.60;3.30;;;15.20;44.40;;;;;;4977384;28;20198;-79
2023/03/16 05:55:04;;;;;;;3.70;3.40;;;15.20;44.30;;;;;;4979628;28;20198;-79
2023/03/16 05:57:32;;;;;;;3.15;2.85;;;15.20;44.40;;;;;;4981125;28;20292;-80
2023/03/16 06:00:00;;;;;;;4.07;3.67;;;15.30;44.50;;;;;;4981725;28;20213;-80
2023/03/16 06:02:29;;;;;;;3.72;3.42;;;15.30;44.20;;;;;;4981073;28;20209;-80
2023/03/16 06:04:58;;;;;;;3.70;3.40;;;15.30;44.30;;;;;;4978020;28;20206;-80
2023/03/16 06:07:25;;;;;;;4.20;3.90;;;15.40;44.20;;;;;;4980095;28;20222;-80
2023/03/16 06:09:55;;;;;;;3.97;3.58;;;15.40;43.90;;;;;;4979472;28;20218;-80
2023/03/16 06:12:22;;;;;;;3.47;3.17;;;15.40;43.40;;;;;;4978595;28;20221;-80
2023/03/16 06:14:49;;;;;;;3.90;3.60;;;15.50;43.50;;;;;;4962822;28;20208;-80
2023/03/16 06:17:17;;;;;;;3.70;3.40;;;15.50;43.60;;;;;;4977000;28;20218;-80
2023/03/16 06:19:45;;;;;;;3.88;3.55;;;15.50;43.70;;;;;;4959559;28;20202;-80
2023/03/16 06:22:12;;;;;;;4.32;3.95;;;15.60;43.80;;;;;;4975493;28;20194;-80
2023/03/16 06:24:40;;;;;;;3.80;3.50;;;15.60;43.50;;;;;;4975373;28;20198;-80
2023/03/16 06:27:07;;;;;;;4.20;3.90;;;15.60;43.70;;;;;;4975152;28;20226;-80
2023/03/16 06:29:45;;;;;;;4.10;3.70;;;15.60;43.70;;;;;;4975913;28;20239;-80
2023/03/16 06:32:13;;;;;;;4.07;3.75;;;15.60;43.50;;;;;;4976688;28;20201;-80
2023/03/16 06:34:43;;;;;;;3.90;3.60;;;15.70;43.70;;;;;;4978711;28;20198;-80
2023/03/16 06:37:13;;;;;;;4.07;3.63;;;15.70;43.70;;;;;;4977838;28;20222;-80
2023/03/16 06:39:44;;;;;;;3.50;3.20;;;15.70;43.80;;;;;;4977856;28;20222;-81
2023/03/16 06:42:21;;;;;;;4.25;3.85;;;15.80;43.70;;;;;;4979816;28;20202;-81
2023/03/16 06:48:25;;;;;;;4.07;3.78;;;15.80;43.20;;;;;;4979806;28;20214;-81
2023/03/16 06:50:53;;;;;;;4.10;3.80;;;15.90;43.60;;;;;;4978812;28;20226;-81
2023/03/16 06:53:27;;;;;;;4.25;3.85;;;15.90;43.40;;;;;;4977952;28;20270;-84
2023/03/16 06:55:57;;;;;;;4.10;3.70;;;15.90;43.40;;;;;;4960544;28;20217;-83
2023/03/16 06:58:26;;;;;;;4.35;3.95;;;15.90;43.60;;;;;;4976955;28;20198;-83
2023/03/16 07:01:16;;;;;;;4.88;4.47;;;15.90;43.50;;;;;;4976491;28;20216;-83
2023/03/16 07:03:43;;;;;;;3.63;3.33;;;16.00;43.50;;;;;;4976439;28;20297;-84
2023/03/16 07:06:33;;;;;;;3.80;3.50;;;16.00;43.50;;;;;;4975258;28;20268;-84
2023/03/16 07:09:03;;;;;;;4.25;3.85;;;16.00;43.50;;;;;;4975203;28;20214;-83
2023/03/16 07:11:31;;;;;;;3.75;3.45;;;16.10;43.40;;;;;;4974389;28;20685;-83
2023/03/16 07:14:00;;;;;;;3.80;3.50;;;16.20;43.40;;;;;;4974392;28;20198;-83
2023/03/16 07:16:30;;;;;;;4.38;3.97;;;16.30;43.20;;;;;;4974533;28;20309;-83
2023/03/16 07:19:01;;;;;;;4.07;3.70;;;16.40;43.00;;;;;;4976256;28;20217;-83
2023/03/16 07:21:28;;;;;;;3.40;3.10;;;16.50;43.00;;;;;;4971787;28;20292;-83
2023/03/16 07:23:55;;;;;;;4.13;3.33;;;16.70;43.00;;;;;;4984092;28;20210;-83
2023/03/16 07:26:29;;;;;;;3.60;3.30;;;16.80;42.60;;;;;;4966204;28;20222;-83
2023/03/16 07:29:03;;;;;;;3.85;3.55;;;17.10;42.20;;;;;;4977269;28;20214;-79
2023/03/16 07:31:34;;;;;;;3.40;3.10;;;17.20;41.90;;;;;;4977124;28;20196;-78
2023/03/16 07:34:08;;;;;;;3.60;3.30;;;17.40;41.50;;;;;;4976720;28;20190;-79
2023/03/16 07:36:43;;;;;;;3.45;3.15;;;17.50;41.30;;;;;;4976708;28;20213;-79
2023/03/16 07:39:13;;;;;;;3.40;3.10;;;17.60;41.00;;;;;;4975880;28;20198;-79
2023/03/16 07:41:46;;;;;;;3.95;3.50;;;17.70;41.00;;;;;;4976846;28;20194;-80
2023/03/16 07:44:16;;;;;;;3.30;2.97;;;17.90;40.70;;;;;;4977114;28;20209;-80
2023/03/16 07:46:47;;;;;;;3.40;3.10;;;18.00;40.40;;;;;;4975744;28;20238;-79
2023/03/16 07:49:15;;;;;;;3.80;3.50;;;18.20;40.30;;;;;;4975258;28;20218;-79
2023/03/16 07:51:47;;;;;;;3.72;3.42;;;18.40;40.30;;;;;;4976204;28;20226;-80
2023/03/16 07:54:21;;;;;;;3.42;3.13;;;18.50;40.10;;;;;;4960804;28;20248;-80
2023/03/16 07:56:50;;;;;;;3.65;3.35;;;18.70;40.20;;;;;;4959529;28;20229;-80
2023/03/16 07:59:27;;;;;;;3.42;3.13;;;18.80;40.10;;;;;;5013757;23;20351;-81
2023/03/16 08:01:54;;;;;;;3.50;3.20;;;19.00;39.70;;;;;;4974276;28;20293;-82
2023/03/16 08:04:22;;;;;;;3.70;3.40;;;19.10;39.60;;;;;;4958036;28;20202;-83
2023/03/16 08:06:58;;;;;;;3.63;3.33;;;19.30;39.50;;;;;;4974061;28;20229;-82
2023/03/16 08:09:28;;;;;;;2.90;2.67;;;19.40;39.40;;;;;;4959808;28;20214;-82
2023/03/16 08:11:57;;;;;;;3.10;2.83;;;19.50;39.20;;;;;;4974435;28;20206;-82
2023/03/16 08:14:24;;;;;;;3.60;3.30;;;19.70;39.10;;;;;;4974979;28;20194;-82
2023/03/16 08:17:01;;;;;;;3.40;3.10;;;19.80;38.90;;;;;;4975633;28;20305;-82
2023/03/16 08:19:29;;;;;;;3.53;3.00;;;19.90;38.70;;;;;;4976239;28;20728;-82
2023/03/16 08:22:00;;;;;;;2.88;2.53;;;20.00;38.50;;;;;;4977423;28;20194;-82
2023/03/16 08:24:29;;;;;;;3.08;2.83;;;20.20;38.40;;;;;;4976990;28;20590;-82
2023/03/16 08:26:59;;;;;;;3.35;3.05;;;20.30;38.30;;;;;;4975687;28;20222;-82
2023/03/16 08:29:28;;;;;;;2.80;2.60;;;20.40;38.00;;;;;;4975677;28;20707;-82
2023/03/16 08:31:55;;;;;;;2.35;2.17;;;20.40;37.90;;;;;;4976056;28;20194;-82
2023/03/16 08:34:30;;;;;;;2.50;2.30;;;20.50;37.60;;;;;;4978024;28;20185;-82
2023/03/16 08:36:58;;;;;;;2.55;2.35;;;20.60;37.60;;;;;;4979386;28;20225;-82
2023/03/16 08:39:34;;;;;;;2.50;2.30;;;20.70;37.60;;;;;;4963726;28;20281;-82
2023/03/16 08:42:08;;;;;;;2.35;2.15;;;20.70;37.30;;;;;;4979462;28;20256;-81
2023/03/16 08:44:48;;;;;;;2.30;2.13;;;20.80;37.30;;;;;;4979270;28;20240;-82
2023/03/16 08:47:15;;;;;;;1.85;1.75;;;20.90;37.10;;;;;;4978521;28;20229;-81
2023/03/16 08:49:44;;;;;;;1.95;1.70;;;21.00;37.30;;;;;;4978414;28;20719;-81
2023/03/16 08:52:14;;;;;;;2.03;1.92;;;21.10;37.00;;;;;;4977987;28;20727;-81
2023/03/16 08:55:03;;;;;;;1.90;1.80;;;21.10;37.00;;;;;;4979674;28;20189;-81
2023/03/16 08:57:32;;;;;;;2.33;1.88;;;21.20;36.90;;;;;;4977473;28;20228;-81
2023/03/16 09:00:00;;;;;;;1.98;1.88;;;21.20;36.90;;;;;;4977853;28;20270;-81
2023/03/16 09:02:27;;;;;;;2.00;1.90;;;21.30;36.70;;;;;;4977630;28;20202;-81
2023/03/16 09:04:55;;;;;;;2.00;1.90;;;21.40;36.70;;;;;;4977771;28;20206;-81
2023/03/16 09:07:22;;;;;;;1.90;1.80;;;21.40;36.50;;;;;;4962761;28;20622;-81
2023/03/16 09:09:49;;;;;;;1.90;1.70;;;21.50;36.50;;;;;;4978345;28;20218;-81
2023/03/16 09:12:17;;;;;;;1.80;1.70;;;21.50;36.30;;;;;;4977216;28;20206;-81
2023/03/16 09:14:45;;;;;;;2.30;1.90;;;21.50;36.20;;;;;;4976835;28;20198;-81
2023/03/16 09:17:13;;;;;;;1.60;1.50;;;21.60;36.20;;;;;;4976828;28;20222;-81
2023/03/16 09:19:40;;;;;;;1.67;1.58;;;21.70;36.00;;;;;;4977009;28;20301;-81
2023/03/16 09:22:07;;;;;;;1.60;1.50;;;21.70;36.00;;;;;;4977049;28;20201;-81
2023/03/16 09:24:35;;;;;;;1.70;1.60;;;21.70;36.00;;;;;;4976540;28;20190;-81
2023/03/16 09:27:02;;;;;;;1.60;1.50;;;21.80;35.90;;;;;;4976361;28;20247;-81
2023/03/16 09:29:29;;;;;;;1.70;1.60;;;21.90;35.80;;;;;;4976695;28;20244;-81
2023/03/16 09:31:58;;;;;;;1.90;1.70;;;21.90;35.70;;;;;;4976735;28;20213;-82
2023/03/16 09:34:25;;;;;;;1.63;1.52;;;21.90;35.70;;;;;;4977640;28;20260;-82
2023/03/16 09:36:54;;;;;;;2.17;1.67;;;22.00;35.70;;;;;;4977928;28;20225;-81
2023/03/16 09:39:21;;;;;;;1.60;1.50;;;22.00;35.50;;;;;;4977337;28;20201;-82
2023/03/16 09:41:50;;;;;;;1.50;1.40;;;22.10;35.70;;;;;;4977225;28;20646;-82
2023/03/16 09:44:29;;;;;;;1.42;1.33;;;22.10;35.50;;;;;;4976985;28;20289;-82
2023/03/16 09:46:59;;;;;;;1.95;1.85;;;22.10;35.50;;;;;;4976887;28;20226;-82
2023/03/16 09:49:27;;;;;;;1.75;1.65;;;22.10;35.60;;;;;;4977006;28;20716;-82
2023/03/16 09:51:56;;;;;;;1.70;1.60;;;22.10;35.40;;;;;;4977641;28;20198;-82
2023/03/16 09:54:27;;;;;;;1.73;1.60;;;22.20;35.40;;;;;;4960841;28;20198;-82
2023/03/16 09:56:56;;;;;;;1.63;1.52;;;22.10;35.20;;;;;;4976190;28;20249;-82
2023/03/16 09:59:24;;;;;;;1.88;1.55;;;22.20;35.30;;;;;;4975738;28;20260;-82
2023/03/16 10:02:01;;;;;;;1.50;1.40;;;22.20;35.30;;;;;;4976100;28;20205;-82
2023/03/16 10:04:40;;;;;;;1.98;1.60;;;22.20;35.30;;;;;;4976540;28;20205;-82
2023/03/16 10:07:17;;;;;;;1.65;1.52;;;22.20;35.30;;;;;;4975356;28;20240;-82
2023/03/16 10:09:47;;;;;;;1.60;1.50;;;22.20;35.60;;;;;;4976473;28;20265;-82
2023/03/16 10:12:14;;;;;;;1.80;1.60;;;22.20;35.60;;;;;;4976019;28;20206;-82
2023/03/16 10:14:45;;;;;;;2.78;1.70;;;22.10;35.40;;;;;;4976150;28;20209;-82
2023/03/16 10:17:15;;;;;;;1.38;1.30;;;22.10;35.50;;;;;;4977084;28;20210;-82
2023/03/16 10:19:45;;;;;;;1.60;1.50;;;22.00;35.50;;;;;;4975843;28;20198;-82
2023/03/16 10:22:18;;;;;;;1.38;1.27;;;22.10;35.80;;;;;;4976403;28;20206;-82
2023/03/16 10:24:54;;;;;;;1.50;1.40;;;22.00;35.70;;;;;;4976106;28;20664;-82
2023/03/16 10:27:26;;;;;;;1.42;1.33;;;22.00;35.60;;;;;;4976031;28;20224;-82
2023/03/16 10:29:52;;;;;;;1.85;1.50;;;22.00;35.80;;;;;;4977221;28;20198;-82
2023/03/16 10:32:23;;;;;;;1.77;1.60;;;21.90;36.30;;;;;;4975861;28;20198;-82
2023/03/16 10:34:53;;;;;;;1.70;1.50;;;21.90;36.00;;;;;;4975629;28;20209;-82
2023/03/16 10:37:21;;;;;;;1.38;1.35;;;21.90;36.20;;;;;;4975272;28;20221;-82
2023/03/16 10:39:48;;;;;;;1.70;1.30;;;21.80;36.10;;;;;;4975829;28;20198;-82
2023/03/16 10:42:16;;;;;;;1.45;1.35;;;21.70;36.20;;;;;;4975555;28;20205;-81
2023/03/16 10:44:43;;;;;;;1.38;1.27;;;21.80;36.30;;;;;;4975405;28;20202;-82
2023/03/16 10:47:17;;;;;;;1.73;1.48;;;21.80;36.20;;;;;;4975398;28;20222;-82
2023/03/16 10:49:47;;;;;;;1.42;1.33;;;21.80;36.30;;;;;;4975312;28;20300;-82
2023/03/16 10:52:18;;;;;;;1.30;1.20;;;21.80;36.20;;;;;;4975603;28;20198;-82
2023/03/16 10:54:49;;;;;;;1.50;1.40;;;21.80;36.20;;;;;;4975256;28;20194;-82
2023/03/16 10:57:21;;;;;;;1.15;1.15;;;21.80;36.30;;;;;;4975129;28;20226;-82
2023/03/16 10:59:49;;;;;;;1.70;1.50;;;21.80;36.20;;;;;;4975684;28;20202;-82
2023/03/16 11:02:18;;;;;;;1.88;1.60;;;21.70;36.20;;;;;;4975056;28;20202;-82
2023/03/16 11:04:48;;;;;;;1.40;1.30;;;21.80;36.30;;;;;;4976085;28;20202;-82
2023/03/16 11:07:19;;;;;;;1.45;1.35;;;21.80;36.30;;;;;;4976290;28;20312;-82
2023/03/16 11:09:47;;;;;;;1.50;1.40;;;21.70;36.20;;;;;;4976342;28;20316;-82
2023/03/16 11:12:16;;;;;;;1.63;1.40;;;21.70;36.20;;;;;;4976050;28;20619;-82
2023/03/16 11:14:44;;;;;;;1.50;1.40;;;21.70;36.40;;;;;;4982414;28;20201;-82
2023/03/16 11:17:13;;;;;;;1.38;1.25;;;21.70;36.30;;;;;;4977191;28;20284;-82
2023/03/16 11:19:43;;;;;;;1.58;1.48;;;21.70;36.40;;;;;;4974994;28;20202;-82
2023/03/16 11:22:13;;;;;;;1.67;1.23;;;21.70;36.30;;;;;;4975093;28;20202;-82
2023/03/16 11:24:44;;;;;;;1.20;1.20;;;21.70;36.40;;;;;;4974934;28;20198;-82
2023/03/16 11:27:16;;;;;;;1.42;1.33;;;21.70;36.30;;;;;;4974722;28;20701;-82
2023/03/16 11:29:58;;;;;;;1.52;1.42;;;21.60;36.30;;;;;;4975583;28;20198;-82
2023/03/16 11:32:27;;;;;;;1.60;1.50;;;21.60;36.50;;;;;;4975232;28;20704;-82
2023/03/16 11:34:54;;;;;;;1.38;1.20;;;21.60;36.50;;;;;;4974387;28;20198;-81
2023/03/16 11:37:32;;;;;;;1.33;1.23;;;21.60;36.60;;;;;;4974689;28;20218;-81
2023/03/16 11:40:08;;;;;;;1.70;1.27;;;21.60;36.60;;;;;;4974657;28;20206;-82
2023/03/16 11:42:38;;;;;;;1.40;1.30;;;21.50;36.70;;;;;;4974615;28;20217;-81
2023/03/16 11:45:13;;;;;;;1.30;1.20;;;21.50;36.70;;;;;;4974835;28;20191;-82
2023/03/16 11:48:15;;;;;;;1.50;1.40;;;21.50;36.90;;;;;;4974410;28;20193;-82
2023/03/16 11:50:52;;;;;;;1.42;1.33;;;21.50;36.90;;;;;;4951921;28;20225;-82
2023/03/16 11:53:28;;;;;;;1.50;1.40;;;21.60;36.90;;;;;;4977058;28;20204;-83
2023/03/16 11:56:03;;;;;;;1.30;1.20;;;21.50;36.90;;;;;;4974468;28;20643;-83
2023/03/16 11:58:38;;;;;;;1.42;1.33;;;21.50;36.80;;;;;;4975015;28;20190;-82
2023/03/16 12:01:08;;;;;;;1.63;1.40;;;21.50;36.60;;;;;;4953194;28;20198;-82
2023/03/16 12:03:44;;;;;;;1.40;1.30;;;21.60;36.40;;;;;;4993822;28;20194;-82
2023/03/16 12:06:21;;;;;;;1.48;1.38;;;21.60;36.50;;;;;;4994891;28;20276;-83
2023/03/16 12:09:03;;;;;;;1.20;1.10;;;21.70;36.20;;;;;;4986124;28;20617;-83
2023/03/16 12:11:30;;;;;;;1.48;1.38;;;21.70;36.40;;;;;;4982510;28;20249;-83
2023/03/16 12:14:02;;;;;;;1.58;1.48;;;21.70;36.80;;;;;;4982505;28;20220;-83
2023/03/16 12:16:31;;;;;;;1.35;1.27;;;21.70;36.20;;;;;;4982460;28;20226;-83
2023/03/16 12:19:00;;;;;;;1.80;1.58;;;21.80;35.80;;;;;;4982517;28;20585;-83
2023/03/16 12:21:31;;;;;;;1.60;1.45;;;21.80;36.00;;;;;;4982547;28;20209;-83
2023/03/16 12:24:01;;;;;;;1.42;1.33;;;21.80;35.70;;;;;;4983527;28;20178;-83
2023/03/16 12:26:31;;;;;;;1.77;1.45;;;21.80;36.00;;;;;;4982343;28;20222;-83
2023/03/16 12:28:58;;;;;;;1.60;1.50;;;21.80;35.80;;;;;;4981871;28;20210;-82
2023/03/16 12:31:30;;;;;;;1.40;1.30;;;21.80;35.70;;;;;;4981973;28;20318;-82
2023/03/16 12:34:12;;;;;;;1.52;1.42;;;21.80;35.80;;;;;;4981793;28;20198;-82
2023/03/16 12:36:57;;;;;;;1.55;1.45;;;21.80;36.00;;;;;;4980918;28;20214;-83
2023/03/16 12:39:32;;;;;;;1.48;1.30;;;21.80;35.90;;;;;;4981218;28;20190;-83
2023/03/16 12:42:10;;;;;;;1.40;1.30;;;21.80;35.80;;;;;;4980909;28;20198;-83
2023/03/16 12:44:40;;;;;;;1.85;1.60;;;21.80;35.80;;;;;;4986190;28;20758;-83
2023/03/16 12:47:09;;;;;;;1.80;1.70;;;21.80;35.60;;;;;;4982143;28;20261;-83
2023/03/16 12:49:37;;;;;;;1.40;1.30;;;21.80;35.40;;;;;;4983767;28;20186;-83
2023/03/16 12:52:05;;;;;;;1.55;1.45;;;21.80;35.90;;;;;;4981519;28;20242;-83
2023/03/16 12:54:34;;;;;;;1.52;1.42;;;21.80;35.80;;;;;;4979784;28;20198;-83
2023/03/16 12:57:02;;;;;;;2.15;1.70;;;21.80;36.00;;;;;;4963685;28;20225;-83
2023/03/16 12:59:37;;;;;;;1.77;1.58;;;21.70;36.00;;;;;;4979953;28;20579;-83
2023/03/16 13:02:05;;;;;;;1.50;1.40;;;21.80;36.00;;;;;;4979544;28;20617;-83
2023/03/16 13:04:33;;;;;;;1.48;1.38;;;21.70;36.10;;;;;;4980325;28;20548;-83
2023/03/16 13:07:03;;;;;;;1.52;1.42;;;21.70;36.40;;;;;;4979353;28;20225;-83